sensor_id;sensor_type;location;lat;lon;timestamp;P1;durP1;ratioP1;P2;durP2;ratioP2
11572;SDS011;5842;52.426;4.886;2023-02-15T00:00:41;94.30;;;47.73;;
11572;SDS011;5842;52.426;4.886;2023-02-15T00:03:09;103.63;;;49.00;;
11572;SDS011;5842;52.426;4.886;2023-02-15T00:05:39;91.07;;;46.77;;
11572;SDS011;5842;52.426;4.886;2023-02-15T00:08:07;87.13;;;45.47;;
11572;SDS011;5842;52.426;4.886;2023-02-15T00:10:34;82.17;;;43.90;;
11572;SDS011;5842;52.426;4.886;2023-02-15T00:13:07;68.90;;;39.23;;
11572;SDS011;5842;52.426;4.886;2023-02-15T00:15:34;66.60;;;35.23;;
11572;SDS011;5842;52.426;4.886;2023-02-15T00:18:01;64.13;;;35.37;;
11572;SDS011;5842;52.426;4.886;2023-02-15T00:20:30;59.57;;;34.63;;
11572;SDS011;5842;52.426;4.886;2023-02-15T00:23:11;60.33;;;35.83;;
11572;SDS011;5842;52.426;4.886;2023-02-15T00:25:40;63.83;;;36.23;;
11572;SDS011;5842;52.426;4.886;2023-02-15T00:28:10;64.30;;;37.57;;
11572;SDS011;5842;52.426;4.886;2023-02-15T00:30:37;60.13;;;36.97;;
11572;SDS011;5842;52.426;4.886;2023-02-15T00:33:05;54.70;;;34.80;;
11572;SDS011;5842;52.426;4.886;2023-02-15T00:35:33;59.20;;;36.97;;
11572;SDS011;5842;52.426;4.886;2023-02-15T00:38:05;65.70;;;38.60;;
11572;SDS011;5842;52.426;4.886;2023-02-15T00:40:36;80.63;;;43.53;;
11572;SDS011;5842;52.426;4.886;2023-02-15T00:43:06;123.70;;;48.00;;
11572;SDS011;5842;52.426;4.886;2023-02-15T00:45:33;101.03;;;47.97;;
11572;SDS011;5842;52.426;4.886;2023-02-15T00:48:04;99.20;;;49.43;;
11572;SDS011;5842;52.426;4.886;2023-02-15T00:50:31;110.27;;;51.57;;
11572;SDS011;5842;52.426;4.886;2023-02-15T00:52:59;111.03;;;49.97;;
11572;SDS011;5842;52.426;4.886;2023-02-15T00:55:30;94.53;;;46.47;;
11572;SDS011;5842;52.426;4.886;2023-02-15T00:58:04;86.17;;;43.33;;
11572;SDS011;5842;52.426;4.886;2023-02-15T01:00:34;74.10;;;41.47;;
11572;SDS011;5842;52.426;4.886;2023-02-15T01:03:03;62.03;;;37.23;;
11572;SDS011;5842;52.426;4.886;2023-02-15T01:05:31;62.17;;;34.23;;
11572;SDS011;5842;52.426;4.886;2023-02-15T01:08:01;62.67;;;33.60;;
11572;SDS011;5842;52.426;4.886;2023-02-15T01:10:30;52.87;;;33.70;;
11572;SDS011;5842;52.426;4.886;2023-02-15T01:13:04;68.77;;;33.93;;
11572;SDS011;5842;52.426;4.886;2023-02-15T01:15:33;53.90;;;33.23;;
11572;SDS011;5842;52.426;4.886;2023-02-15T01:18:03;58.50;;;34.73;;
11572;SDS011;5842;52.426;4.886;2023-02-15T01:20:34;51.13;;;32.80;;
11572;SDS011;5842;52.426;4.886;2023-02-15T01:23:05;59.83;;;33.43;;
11572;SDS011;5842;52.426;4.886;2023-02-15T01:25:37;52.17;;;33.40;;
11572;SDS011;5842;52.426;4.886;2023-02-15T01:28:07;59.97;;;34.20;;
11572;SDS011;5842;52.426;4.886;2023-02-15T01:30:34;58.30;;;35.80;;
11572;SDS011;5842;52.426;4.886;2023-02-15T01:33:02;58.17;;;34.63;;
11572;SDS011;5842;52.426;4.886;2023-02-15T01:35:29;54.57;;;33.33;;
11572;SDS011;5842;52.426;4.886;2023-02-15T01:37:56;57.63;;;34.97;;
11572;SDS011;5842;52.426;4.886;2023-02-15T01:40:27;56.50;;;34.37;;
11572;SDS011;5842;52.426;4.886;2023-02-15T01:43:00;57.17;;;33.47;;
11572;SDS011;5842;52.426;4.886;2023-02-15T01:45:27;56.90;;;34.37;;
11572;SDS011;5842;52.426;4.886;2023-02-15T01:47:59;59.00;;;34.53;;
11572;SDS011;5842;52.426;4.886;2023-02-15T01:50:28;59.40;;;34.67;;
11572;SDS011;5842;52.426;4.886;2023-02-15T01:52:58;60.80;;;36.17;;
11572;SDS011;5842;52.426;4.886;2023-02-15T01:55:29;60.50;;;34.93;;
11572;SDS011;5842;52.426;4.886;2023-02-15T01:58:05;62.43;;;34.40;;
11572;SDS011;5842;52.426;4.886;2023-02-15T02:00:34;60.67;;;34.87;;
11572;SDS011;5842;52.426;4.886;2023-02-15T02:03:01;61.07;;;35.03;;
11572;SDS011;5842;52.426;4.886;2023-02-15T02:05:32;63.43;;;35.37;;
11572;SDS011;5842;52.426;4.886;2023-02-15T02:08:01;65.10;;;36.27;;
11572;SDS011;5842;52.426;4.886;2023-02-15T02:10:29;67.23;;;36.77;;
11572;SDS011;5842;52.426;4.886;2023-02-15T02:13:00;62.70;;;34.43;;
11572;SDS011;5842;52.426;4.886;2023-02-15T02:15:33;62.53;;;34.43;;
11572;SDS011;5842;52.426;4.886;2023-02-15T02:18:09;58.73;;;34.13;;
11572;SDS011;5842;52.426;4.886;2023-02-15T02:20:51;61.40;;;34.17;;
11572;SDS011;5842;52.426;4.886;2023-02-15T02:23:24;54.70;;;31.80;;
11572;SDS011;5842;52.426;4.886;2023-02-15T02:28:46;61.97;;;35.43;;
11572;SDS011;5842;52.426;4.886;2023-02-15T02:31:35;60.23;;;33.27;;
11572;SDS011;5842;52.426;4.886;2023-02-15T02:34:12;61.97;;;34.13;;
11572;SDS011;5842;52.426;4.886;2023-02-15T02:36:49;58.10;;;32.77;;
11572;SDS011;5842;52.426;4.886;2023-02-15T02:39:22;57.37;;;32.33;;
11572;SDS011;5842;52.426;4.886;2023-02-15T02:41:55;58.73;;;32.27;;
11572;SDS011;5842;52.426;4.886;2023-02-15T02:44:25;60.23;;;32.17;;
11572;SDS011;5842;52.426;4.886;2023-02-15T02:46:58;60.03;;;32.20;;
11572;SDS011;5842;52.426;4.886;2023-02-15T02:49:34;58.13;;;31.87;;
11572;SDS011;5842;52.426;4.886;2023-02-15T02:52:05;62.40;;;32.47;;
11572;SDS011;5842;52.426;4.886;2023-02-15T02:54:34;59.20;;;32.73;;
11572;SDS011;5842;52.426;4.886;2023-02-15T02:57:05;70.77;;;30.57;;
11572;SDS011;5842;52.426;4.886;2023-02-15T02:59:38;51.83;;;29.57;;
11572;SDS011;5842;52.426;4.886;2023-02-15T03:02:07;49.63;;;27.90;;
11572;SDS011;5842;52.426;4.886;2023-02-15T03:04:42;47.33;;;27.80;;
11572;SDS011;5842;52.426;4.886;2023-02-15T03:07:12;58.20;;;31.10;;
11572;SDS011;5842;52.426;4.886;2023-02-15T03:09:47;56.03;;;30.90;;
11572;SDS011;5842;52.426;4.886;2023-02-15T03:12:16;59.40;;;31.73;;
11572;SDS011;5842;52.426;4.886;2023-02-15T03:14:46;58.47;;;31.33;;
11572;SDS011;5842;52.426;4.886;2023-02-15T03:17:17;61.30;;;33.10;;
11572;SDS011;5842;52.426;4.886;2023-02-15T03:19:49;59.87;;;32.13;;
11572;SDS011;5842;52.426;4.886;2023-02-15T03:22:20;61.77;;;33.10;;
11572;SDS011;5842;52.426;4.886;2023-02-15T03:24:52;61.23;;;33.10;;
11572;SDS011;5842;52.426;4.886;2023-02-15T03:27:21;63.90;;;34.97;;
11572;SDS011;5842;52.426;4.886;2023-02-15T03:29:52;62.30;;;34.93;;
11572;SDS011;5842;52.426;4.886;2023-02-15T03:32:20;65.37;;;33.60;;
11572;SDS011;5842;52.426;4.886;2023-02-15T03:34:52;64.93;;;34.70;;
11572;SDS011;5842;52.426;4.886;2023-02-15T03:37:24;64.70;;;34.47;;
11572;SDS011;5842;52.426;4.886;2023-02-15T03:39:59;58.87;;;32.20;;
11572;SDS011;5842;52.426;4.886;2023-02-15T03:42:53;57.80;;;31.63;;
11572;SDS011;5842;52.426;4.886;2023-02-15T03:45:24;57.43;;;31.63;;
11572;SDS011;5842;52.426;4.886;2023-02-15T03:47:55;62.00;;;32.23;;
11572;SDS011;5842;52.426;4.886;2023-02-15T03:50:28;58.10;;;31.87;;
11572;SDS011;5842;52.426;4.886;2023-02-15T03:53:17;53.83;;;30.53;;
11572;SDS011;5842;52.426;4.886;2023-02-15T03:55:53;50.03;;;29.47;;
11572;SDS011;5842;52.426;4.886;2023-02-15T03:58:21;53.63;;;29.70;;
11572;SDS011;5842;52.426;4.886;2023-02-15T04:01:10;46.60;;;28.03;;
11572;SDS011;5842;52.426;4.886;2023-02-15T04:03:59;50.83;;;28.13;;
11572;SDS011;5842;52.426;4.886;2023-02-15T04:06:31;53.63;;;28.90;;
11572;SDS011;5842;52.426;4.886;2023-02-15T04:08:58;52.03;;;27.37;;
11572;SDS011;5842;52.426;4.886;2023-02-15T04:11:43;52.83;;;27.77;;
11572;SDS011;5842;52.426;4.886;2023-02-15T04:14:14;51.83;;;27.37;;
11572;SDS011;5842;52.426;4.886;2023-02-15T04:17:05;49.27;;;25.70;;
11572;SDS011;5842;52.426;4.886;2023-02-15T04:19:33;53.10;;;28.77;;
11572;SDS011;5842;52.426;4.886;2023-02-15T04:22:20;50.00;;;26.83;;
11572;SDS011;5842;52.426;4.886;2023-02-15T04:25:05;46.90;;;26.67;;
11572;SDS011;5842;52.426;4.886;2023-02-15T04:27:36;50.43;;;26.00;;
11572;SDS011;5842;52.426;4.886;2023-02-15T04:30:05;47.57;;;26.83;;
11572;SDS011;5842;52.426;4.886;2023-02-15T04:32:33;48.20;;;26.80;;
11572;SDS011;5842;52.426;4.886;2023-02-15T04:35:01;48.90;;;26.37;;
11572;SDS011;5842;52.426;4.886;2023-02-15T04:37:33;51.43;;;27.83;;
11572;SDS011;5842;52.426;4.886;2023-02-15T04:40:00;53.00;;;26.53;;
11572;SDS011;5842;52.426;4.886;2023-02-15T04:42:30;54.00;;;27.57;;
11572;SDS011;5842;52.426;4.886;2023-02-15T04:45:00;57.87;;;28.80;;
11572;SDS011;5842;52.426;4.886;2023-02-15T04:47:34;51.53;;;26.97;;
11572;SDS011;5842;52.426;4.886;2023-02-15T04:50:01;54.83;;;27.73;;
11572;SDS011;5842;52.426;4.886;2023-02-15T04:52:29;53.00;;;28.07;;
11572;SDS011;5842;52.426;4.886;2023-02-15T04:55:03;53.53;;;27.40;;
11572;SDS011;5842;52.426;4.886;2023-02-15T04:57:31;56.77;;;27.43;;
11572;SDS011;5842;52.426;4.886;2023-02-15T04:59:58;56.03;;;27.70;;
11572;SDS011;5842;52.426;4.886;2023-02-15T05:02:26;56.73;;;27.63;;
11572;SDS011;5842;52.426;4.886;2023-02-15T05:04:59;55.63;;;26.93;;
11572;SDS011;5842;52.426;4.886;2023-02-15T05:07:27;54.77;;;27.47;;
11572;SDS011;5842;52.426;4.886;2023-02-15T05:09:54;52.63;;;26.00;;
11572;SDS011;5842;52.426;4.886;2023-02-15T05:12:23;53.23;;;27.00;;
11572;SDS011;5842;52.426;4.886;2023-02-15T05:14:54;53.67;;;27.00;;
11572;SDS011;5842;52.426;4.886;2023-02-15T05:17:24;50.60;;;25.80;;
11572;SDS011;5842;52.426;4.886;2023-02-15T05:19:51;56.20;;;26.90;;
11572;SDS011;5842;52.426;4.886;2023-02-15T05:22:19;49.77;;;25.40;;
11572;SDS011;5842;52.426;4.886;2023-02-15T05:24:52;49.17;;;25.87;;
11572;SDS011;5842;52.426;4.886;2023-02-15T05:27:42;56.60;;;26.50;;
11572;SDS011;5842;52.426;4.886;2023-02-15T05:30:27;53.00;;;25.57;;
11572;SDS011;5842;52.426;4.886;2023-02-15T05:32:56;50.67;;;26.20;;
11572;SDS011;5842;52.426;4.886;2023-02-15T05:35:29;51.50;;;26.50;;
11572;SDS011;5842;52.426;4.886;2023-02-15T05:37:59;50.17;;;26.23;;
11572;SDS011;5842;52.426;4.886;2023-02-15T05:40:27;62.13;;;27.87;;
11572;SDS011;5842;52.426;4.886;2023-02-15T05:42:55;57.37;;;27.97;;
11572;SDS011;5842;52.426;4.886;2023-02-15T05:45:23;58.83;;;26.80;;
11572;SDS011;5842;52.426;4.886;2023-02-15T05:47:50;55.30;;;27.37;;
11572;SDS011;5842;52.426;4.886;2023-02-15T05:50:18;53.83;;;27.40;;
11572;SDS011;5842;52.426;4.886;2023-02-15T05:52:48;55.90;;;27.13;;
11572;SDS011;5842;52.426;4.886;2023-02-15T05:55:18;58.77;;;27.27;;
11572;SDS011;5842;52.426;4.886;2023-02-15T05:57:45;65.60;;;29.60;;
11572;SDS011;5842;52.426;4.886;2023-02-15T06:00:15;69.37;;;29.53;;
11572;SDS011;5842;52.426;4.886;2023-02-15T06:02:44;63.87;;;29.47;;
11572;SDS011;5842;52.426;4.886;2023-02-15T06:05:12;65.13;;;30.20;;
11572;SDS011;5842;52.426;4.886;2023-02-15T06:07:42;65.90;;;30.23;;
11572;SDS011;5842;52.426;4.886;2023-02-15T06:10:11;75.27;;;32.17;;
11572;SDS011;5842;52.426;4.886;2023-02-15T06:12:39;72.67;;;33.20;;
11572;SDS011;5842;52.426;4.886;2023-02-15T06:15:24;63.63;;;30.60;;
11572;SDS011;5842;52.426;4.886;2023-02-15T06:17:54;67.43;;;31.87;;
11572;SDS011;5842;52.426;4.886;2023-02-15T06:20:22;72.93;;;30.90;;
11572;SDS011;5842;52.426;4.886;2023-02-15T06:22:49;73.13;;;33.17;;
11572;SDS011;5842;52.426;4.886;2023-02-15T06:25:17;69.97;;;34.27;;
11572;SDS011;5842;52.426;4.886;2023-02-15T06:27:46;80.50;;;34.87;;
11572;SDS011;5842;52.426;4.886;2023-02-15T06:30:14;79.50;;;37.13;;
11572;SDS011;5842;52.426;4.886;2023-02-15T06:32:46;84.13;;;37.17;;
11572;SDS011;5842;52.426;4.886;2023-02-15T06:35:15;81.67;;;37.40;;
11572;SDS011;5842;52.426;4.886;2023-02-15T06:37:42;89.07;;;39.17;;
11572;SDS011;5842;52.426;4.886;2023-02-15T06:40:12;89.30;;;39.07;;
11572;SDS011;5842;52.426;4.886;2023-02-15T06:42:44;85.17;;;40.10;;
11572;SDS011;5842;52.426;4.886;2023-02-15T06:45:15;92.00;;;41.13;;
11572;SDS011;5842;52.426;4.886;2023-02-15T06:47:43;94.67;;;41.67;;
11572;SDS011;5842;52.426;4.886;2023-02-15T06:50:15;89.33;;;39.60;;
11572;SDS011;5842;52.426;4.886;2023-02-15T06:52:42;90.30;;;40.33;;
11572;SDS011;5842;52.426;4.886;2023-02-15T06:55:12;91.37;;;41.20;;
11572;SDS011;5842;52.426;4.886;2023-02-15T06:57:45;98.97;;;42.70;;
11572;SDS011;5842;52.426;4.886;2023-02-15T07:00:16;102.20;;;44.20;;
11572;SDS011;5842;52.426;4.886;2023-02-15T07:02:44;104.60;;;45.33;;
11572;SDS011;5842;52.426;4.886;2023-02-15T07:05:13;98.87;;;41.13;;
11572;SDS011;5842;52.426;4.886;2023-02-15T07:07:43;98.97;;;43.33;;
11572;SDS011;5842;52.426;4.886;2023-02-15T07:10:10;107.40;;;46.77;;
11572;SDS011;5842;52.426;4.886;2023-02-15T07:12:38;106.80;;;45.27;;
11572;SDS011;5842;52.426;4.886;2023-02-15T07:15:11;110.57;;;46.97;;
11572;SDS011;5842;52.426;4.886;2023-02-15T07:17:43;109.67;;;46.70;;
11572;SDS011;5842;52.426;4.886;2023-02-15T07:20:11;115.57;;;47.70;;
11572;SDS011;5842;52.426;4.886;2023-02-15T07:38:36;104.97;;;45.97;;
11572;SDS011;5842;52.426;4.886;2023-02-15T07:41:07;141.40;;;54.53;;
11572;SDS011;5842;52.426;4.886;2023-02-15T07:43:36;136.27;;;53.77;;
11572;SDS011;5842;52.426;4.886;2023-02-15T07:46:07;152.07;;;57.57;;
11572;SDS011;5842;52.426;4.886;2023-02-15T07:48:35;141.70;;;56.53;;
11572;SDS011;5842;52.426;4.886;2023-02-15T07:51:04;141.40;;;56.70;;
11572;SDS011;5842;52.426;4.886;2023-02-15T07:53:35;139.47;;;58.00;;
11572;SDS011;5842;52.426;4.886;2023-02-15T07:56:03;141.20;;;59.77;;
11572;SDS011;5842;52.426;4.886;2023-02-15T07:58:31;151.93;;;60.57;;
11572;SDS011;5842;52.426;4.886;2023-02-15T08:01:16;140.23;;;57.67;;
11572;SDS011;5842;52.426;4.886;2023-02-15T08:03:48;137.47;;;56.27;;
11572;SDS011;5842;52.426;4.886;2023-02-15T08:06:16;148.63;;;59.20;;
11572;SDS011;5842;52.426;4.886;2023-02-15T08:08:45;141.07;;;58.13;;
11572;SDS011;5842;52.426;4.886;2023-02-15T08:11:17;134.40;;;56.33;;
11572;SDS011;5842;52.426;4.886;2023-02-15T08:13:51;140.90;;;56.27;;
11572;SDS011;5842;52.426;4.886;2023-02-15T08:16:31;140.67;;;57.97;;
11572;SDS011;5842;52.426;4.886;2023-02-15T08:18:59;141.67;;;59.83;;
11572;SDS011;5842;52.426;4.886;2023-02-15T08:21:28;138.37;;;58.63;;
11572;SDS011;5842;52.426;4.886;2023-02-15T08:23:58;140.20;;;59.93;;
11572;SDS011;5842;52.426;4.886;2023-02-15T08:26:29;138.90;;;59.67;;
11572;SDS011;5842;52.426;4.886;2023-02-15T08:28:59;141.80;;;61.63;;
11572;SDS011;5842;52.426;4.886;2023-02-15T08:31:26;139.33;;;60.83;;
11572;SDS011;5842;52.426;4.886;2023-02-15T08:33:58;131.10;;;59.70;;
11572;SDS011;5842;52.426;4.886;2023-02-15T08:36:26;132.53;;;59.43;;
11572;SDS011;5842;52.426;4.886;2023-02-15T08:38:58;131.83;;;60.60;;
11572;SDS011;5842;52.426;4.886;2023-02-15T08:41:28;135.90;;;66.30;;
11572;SDS011;5842;52.426;4.886;2023-02-15T08:43:59;124.83;;;62.40;;
11572;SDS011;5842;52.426;4.886;2023-02-15T08:46:27;123.10;;;64.33;;
11572;SDS011;5842;52.426;4.886;2023-02-15T08:48:59;80.70;;;47.53;;
11572;SDS011;5842;52.426;4.886;2023-02-15T08:51:29;63.90;;;38.67;;
11572;SDS011;5842;52.426;4.886;2023-02-15T08:54:06;58.60;;;35.37;;
11572;SDS011;5842;52.426;4.886;2023-02-15T08:56:42;53.97;;;33.70;;
11572;SDS011;5842;52.426;4.886;2023-02-15T08:59:11;51.77;;;32.17;;
11572;SDS011;5842;52.426;4.886;2023-02-15T09:01:39;47.70;;;31.77;;
11572;SDS011;5842;52.426;4.886;2023-02-15T09:04:09;51.47;;;31.33;;
11572;SDS011;5842;52.426;4.886;2023-02-15T09:06:45;52.03;;;31.63;;
11572;SDS011;5842;52.426;4.886;2023-02-15T09:09:17;50.47;;;32.63;;
11572;SDS011;5842;52.426;4.886;2023-02-15T09:11:47;50.23;;;31.40;;
11572;SDS011;5842;52.426;4.886;2023-02-15T09:14:16;50.33;;;30.83;;
11572;SDS011;5842;52.426;4.886;2023-02-15T09:16:45;49.23;;;31.93;;
11572;SDS011;5842;52.426;4.886;2023-02-15T09:19:14;49.87;;;31.23;;
11572;SDS011;5842;52.426;4.886;2023-02-15T09:21:42;45.10;;;29.97;;
11572;SDS011;5842;52.426;4.886;2023-02-15T09:24:13;49.90;;;31.33;;
11572;SDS011;5842;52.426;4.886;2023-02-15T09:26:43;50.13;;;31.27;;
11572;SDS011;5842;52.426;4.886;2023-02-15T09:29:12;45.03;;;28.30;;
11572;SDS011;5842;52.426;4.886;2023-02-15T09:31:40;47.60;;;31.27;;
11572;SDS011;5842;52.426;4.886;2023-02-15T09:34:12;49.70;;;31.53;;
11572;SDS011;5842;52.426;4.886;2023-02-15T09:36:45;52.03;;;33.53;;
11572;SDS011;5842;52.426;4.886;2023-02-15T09:39:13;50.97;;;32.37;;
11572;SDS011;5842;52.426;4.886;2023-02-15T09:42:08;54.20;;;34.80;;
11572;SDS011;5842;52.426;4.886;2023-02-15T09:44:43;53.83;;;32.87;;
11572;SDS011;5842;52.426;4.886;2023-02-15T09:47:27;52.07;;;33.57;;
11572;SDS011;5842;52.426;4.886;2023-02-15T09:50:00;55.40;;;33.67;;
11572;SDS011;5842;52.426;4.886;2023-02-15T09:52:33;52.97;;;34.30;;
11572;SDS011;5842;52.426;4.886;2023-02-15T09:55:11;55.97;;;34.70;;
11572;SDS011;5842;52.426;4.886;2023-02-15T09:57:49;53.73;;;34.33;;
11572;SDS011;5842;52.426;4.886;2023-02-15T10:00:21;54.37;;;34.60;;
11572;SDS011;5842;52.426;4.886;2023-02-15T10:02:56;53.83;;;35.23;;
11572;SDS011;5842;52.426;4.886;2023-02-15T10:05:38;53.73;;;34.23;;
11572;SDS011;5842;52.426;4.886;2023-02-15T10:08:13;54.43;;;34.63;;
11572;SDS011;5842;52.426;4.886;2023-02-15T10:10:46;55.07;;;34.57;;
11572;SDS011;5842;52.426;4.886;2023-02-15T10:13:23;56.30;;;35.50;;
11572;SDS011;5842;52.426;4.886;2023-02-15T10:16:01;56.57;;;35.20;;
11572;SDS011;5842;52.426;4.886;2023-02-15T10:18:53;58.67;;;36.37;;
11572;SDS011;5842;52.426;4.886;2023-02-15T10:21:25;61.60;;;36.33;;
11572;SDS011;5842;52.426;4.886;2023-02-15T10:24:14;58.40;;;35.70;;
11572;SDS011;5842;52.426;4.886;2023-02-15T10:26:46;57.37;;;35.60;;
11572;SDS011;5842;52.426;4.886;2023-02-15T10:29:19;57.73;;;34.87;;
11572;SDS011;5842;52.426;4.886;2023-02-15T10:31:53;54.57;;;34.50;;
11572;SDS011;5842;52.426;4.886;2023-02-15T10:34:25;55.93;;;34.30;;
11572;SDS011;5842;52.426;4.886;2023-02-15T10:39:54;57.97;;;35.63;;
11572;SDS011;5842;52.426;4.886;2023-02-15T10:42:27;59.17;;;35.83;;
11572;SDS011;5842;52.426;4.886;2023-02-15T10:45:11;58.00;;;36.27;;
11572;SDS011;5842;52.426;4.886;2023-02-15T10:47:50;56.93;;;36.20;;
11572;SDS011;5842;52.426;4.886;2023-02-15T10:50:29;58.23;;;36.40;;
11572;SDS011;5842;52.426;4.886;2023-02-15T10:53:08;59.73;;;36.17;;
11572;SDS011;5842;52.426;4.886;2023-02-15T10:55:47;57.57;;;36.07;;
11572;SDS011;5842;52.426;4.886;2023-02-15T10:58:26;58.43;;;35.60;;
11572;SDS011;5842;52.426;4.886;2023-02-15T11:01:01;60.20;;;36.50;;
11572;SDS011;5842;52.426;4.886;2023-02-15T11:03:36;57.43;;;35.30;;
11572;SDS011;5842;52.426;4.886;2023-02-15T11:06:08;57.67;;;36.00;;
11572;SDS011;5842;52.426;4.886;2023-02-15T11:08:38;55.77;;;34.30;;
11572;SDS011;5842;52.426;4.886;2023-02-15T11:11:14;58.03;;;35.70;;
11572;SDS011;5842;52.426;4.886;2023-02-15T11:13:43;55.70;;;36.63;;
11572;SDS011;5842;52.426;4.886;2023-02-15T11:16:16;55.17;;;34.23;;
11572;SDS011;5842;52.426;4.886;2023-02-15T11:18:46;56.23;;;34.77;;
11572;SDS011;5842;52.426;4.886;2023-02-15T11:21:17;55.80;;;35.17;;
11572;SDS011;5842;52.426;4.886;2023-02-15T11:23:51;53.13;;;33.47;;
11572;SDS011;5842;52.426;4.886;2023-02-15T11:26:20;54.80;;;35.23;;
11572;SDS011;5842;52.426;4.886;2023-02-15T11:28:49;54.13;;;34.37;;
11572;SDS011;5842;52.426;4.886;2023-02-15T11:31:29;55.10;;;33.87;;
11572;SDS011;5842;52.426;4.886;2023-02-15T11:34:10;52.80;;;31.97;;
11572;SDS011;5842;52.426;4.886;2023-02-15T11:36:41;50.87;;;32.83;;
11572;SDS011;5842;52.426;4.886;2023-02-15T11:39:10;51.83;;;32.50;;
11572;SDS011;5842;52.426;4.886;2023-02-15T11:41:40;53.63;;;32.03;;
11572;SDS011;5842;52.426;4.886;2023-02-15T11:44:11;49.50;;;31.13;;
11572;SDS011;5842;52.426;4.886;2023-02-15T11:46:42;49.87;;;31.37;;
11572;SDS011;5842;52.426;4.886;2023-02-15T11:49:13;51.13;;;30.73;;
11572;SDS011;5842;52.426;4.886;2023-02-15T11:51:44;49.30;;;31.73;;
11572;SDS011;5842;52.426;4.886;2023-02-15T11:54:11;48.73;;;31.20;;
11572;SDS011;5842;52.426;4.886;2023-02-15T11:56:39;47.97;;;31.33;;
11572;SDS011;5842;52.426;4.886;2023-02-15T11:59:09;51.43;;;31.17;;
11572;SDS011;5842;52.426;4.886;2023-02-15T12:01:42;46.73;;;29.50;;
11572;SDS011;5842;52.426;4.886;2023-02-15T12:04:15;46.97;;;29.87;;
11572;SDS011;5842;52.426;4.886;2023-02-15T12:06:47;49.33;;;31.33;;
11572;SDS011;5842;52.426;4.886;2023-02-15T12:09:17;50.37;;;30.83;;
11572;SDS011;5842;52.426;4.886;2023-02-15T12:11:45;51.20;;;31.13;;
11572;SDS011;5842;52.426;4.886;2023-02-15T12:14:14;49.83;;;31.33;;
11572;SDS011;5842;52.426;4.886;2023-02-15T12:16:46;50.30;;;30.87;;
11572;SDS011;5842;52.426;4.886;2023-02-15T12:19:24;46.23;;;30.73;;
11572;SDS011;5842;52.426;4.886;2023-02-15T12:21:56;46.47;;;30.63;;
11572;SDS011;5842;52.426;4.886;2023-02-15T12:24:25;47.87;;;31.93;;
11572;SDS011;5842;52.426;4.886;2023-02-15T12:26:57;48.90;;;32.20;;
11572;SDS011;5842;52.426;4.886;2023-02-15T12:29:30;46.80;;;30.00;;
11572;SDS011;5842;52.426;4.886;2023-02-15T12:32:04;50.07;;;31.37;;
11572;SDS011;5842;52.426;4.886;2023-02-15T12:34:35;52.13;;;32.83;;
11572;SDS011;5842;52.426;4.886;2023-02-15T12:37:09;50.17;;;32.13;;
11572;SDS011;5842;52.426;4.886;2023-02-15T12:39:39;54.30;;;34.43;;
11572;SDS011;5842;52.426;4.886;2023-02-15T12:42:17;49.43;;;31.33;;
11572;SDS011;5842;52.426;4.886;2023-02-15T12:44:58;53.27;;;32.03;;
11572;SDS011;5842;52.426;4.886;2023-02-15T12:47:27;50.40;;;32.00;;
11572;SDS011;5842;52.426;4.886;2023-02-15T12:50:06;50.93;;;32.43;;
11572;SDS011;5842;52.426;4.886;2023-02-15T12:52:41;49.83;;;33.57;;
11572;SDS011;5842;52.426;4.886;2023-02-15T12:55:21;54.00;;;33.53;;
11572;SDS011;5842;52.426;4.886;2023-02-15T12:57:49;52.10;;;33.63;;
11572;SDS011;5842;52.426;4.886;2023-02-15T13:00:29;49.30;;;32.63;;
11572;SDS011;5842;52.426;4.886;2023-02-15T13:03:01;49.77;;;32.10;;
11572;SDS011;5842;52.426;4.886;2023-02-15T13:05:34;51.10;;;33.60;;
11572;SDS011;5842;52.426;4.886;2023-02-15T13:08:03;54.80;;;34.07;;
11572;SDS011;5842;52.426;4.886;2023-02-15T13:10:38;55.60;;;36.33;;
11572;SDS011;5842;52.426;4.886;2023-02-15T13:13:10;56.40;;;34.80;;
11572;SDS011;5842;52.426;4.886;2023-02-15T13:15:43;52.17;;;33.80;;
11572;SDS011;5842;52.426;4.886;2023-02-15T13:18:16;54.23;;;34.93;;
11572;SDS011;5842;52.426;4.886;2023-02-15T13:20:44;55.97;;;35.93;;
11572;SDS011;5842;52.426;4.886;2023-02-15T13:23:20;54.57;;;34.63;;
11572;SDS011;5842;52.426;4.886;2023-02-15T13:25:50;51.83;;;34.73;;
11572;SDS011;5842;52.426;4.886;2023-02-15T13:28:23;55.77;;;34.37;;
11572;SDS011;5842;52.426;4.886;2023-02-15T13:30:52;52.47;;;34.17;;
11572;SDS011;5842;52.426;4.886;2023-02-15T13:33:23;52.93;;;35.30;;
11572;SDS011;5842;52.426;4.886;2023-02-15T13:35:56;53.40;;;34.13;;
11572;SDS011;5842;52.426;4.886;2023-02-15T13:41:09;54.73;;;35.77;;
11572;SDS011;5842;52.426;4.886;2023-02-15T13:43:44;56.70;;;35.70;;
11572;SDS011;5842;52.426;4.886;2023-02-15T13:46:23;54.63;;;36.23;;
11572;SDS011;5842;52.426;4.886;2023-02-15T13:49:02;54.53;;;36.07;;
11572;SDS011;5842;52.426;4.886;2023-02-15T13:51:37;59.00;;;37.23;;
11572;SDS011;5842;52.426;4.886;2023-02-15T13:54:25;58.27;;;37.07;;
11572;SDS011;5842;52.426;4.886;2023-02-15T13:57:01;56.37;;;37.57;;
11572;SDS011;5842;52.426;4.886;2023-02-15T13:59:41;58.17;;;37.43;;
11572;SDS011;5842;52.426;4.886;2023-02-15T14:02:28;57.43;;;37.87;;
11572;SDS011;5842;52.426;4.886;2023-02-15T14:07:51;60.47;;;38.13;;
11572;SDS011;5842;52.426;4.886;2023-02-15T14:10:29;60.10;;;38.07;;
11572;SDS011;5842;52.426;4.886;2023-02-15T14:15:48;56.67;;;36.57;;
11572;SDS011;5842;52.426;4.886;2023-02-15T14:18:22;57.13;;;38.23;;
11572;SDS011;5842;52.426;4.886;2023-02-15T14:20:57;60.23;;;36.87;;
11572;SDS011;5842;52.426;4.886;2023-02-15T14:23:33;59.03;;;37.97;;
11572;SDS011;5842;52.426;4.886;2023-02-15T14:26:06;57.23;;;37.70;;
11572;SDS011;5842;52.426;4.886;2023-02-15T14:28:38;58.03;;;35.87;;
11572;SDS011;5842;52.426;4.886;2023-02-15T14:31:12;58.47;;;38.23;;
11572;SDS011;5842;52.426;4.886;2023-02-15T14:33:41;56.37;;;36.30;;
11572;SDS011;5842;52.426;4.886;2023-02-15T14:36:15;57.40;;;35.50;;
11572;SDS011;5842;52.426;4.886;2023-02-15T14:38:56;56.73;;;36.00;;
11572;SDS011;5842;52.426;4.886;2023-02-15T14:41:31;53.63;;;34.00;;
11572;SDS011;5842;52.426;4.886;2023-02-15T14:44:05;56.60;;;36.10;;
11572;SDS011;5842;52.426;4.886;2023-02-15T14:46:38;54.17;;;34.43;;
11572;SDS011;5842;52.426;4.886;2023-02-15T14:49:11;53.77;;;34.83;;
11572;SDS011;5842;52.426;4.886;2023-02-15T14:51:59;57.83;;;35.83;;
11572;SDS011;5842;52.426;4.886;2023-02-15T15:02:53;55.77;;;34.87;;
11572;SDS011;5842;52.426;4.886;2023-02-15T15:05:28;59.00;;;35.07;;
11572;SDS011;5842;52.426;4.886;2023-02-15T15:08:02;57.83;;;36.03;;
11572;SDS011;5842;52.426;4.886;2023-02-15T15:10:34;54.97;;;34.53;;
11572;SDS011;5842;52.426;4.886;2023-02-15T15:15:51;56.70;;;33.70;;
11572;SDS011;5842;52.426;4.886;2023-02-15T15:21:06;50.23;;;32.73;;
11572;SDS011;5842;52.426;4.886;2023-02-15T15:23:40;56.27;;;34.57;;
11572;SDS011;5842;52.426;4.886;2023-02-15T15:26:21;50.93;;;33.13;;
11572;SDS011;5842;52.426;4.886;2023-02-15T15:28:56;54.27;;;33.67;;
11572;SDS011;5842;52.426;4.886;2023-02-15T15:31:29;52.03;;;33.40;;
11572;SDS011;5842;52.426;4.886;2023-02-15T15:36:58;55.50;;;34.60;;
11572;SDS011;5842;52.426;4.886;2023-02-15T15:39:42;57.97;;;36.50;;
11572;SDS011;5842;52.426;4.886;2023-02-15T15:42:18;56.30;;;34.03;;
11572;SDS011;5842;52.426;4.886;2023-02-15T15:45:03;55.67;;;34.90;;
11572;SDS011;5842;52.426;4.886;2023-02-15T15:47:45;56.63;;;35.53;;
11572;SDS011;5842;52.426;4.886;2023-02-15T15:50:23;56.93;;;34.23;;